createdAt,value
2023-04-23T00:01:10.655Z,95773.63
2023-04-23T00:04:09.390Z,95766.34
2023-04-23T00:07:06.859Z,95765.66
2023-04-23T00:10:05.662Z,95771.38
2023-04-23T00:13:02.864Z,95765.91
2023-04-23T00:16:00.218Z,95761.31
2023-04-23T00:18:57.084Z,95755.03
2023-04-23T00:21:53.888Z,95753.69
2023-04-23T00:24:50.754Z,95749.63
2023-04-23T00:27:47.988Z,95749.28
2023-04-23T00:30:44.782Z,95745.97
2023-04-23T00:33:41.674Z,95752.97
2023-04-23T00:36:38.609Z,95747.06
2023-04-23T00:39:37.563Z,95744.06
2023-04-23T00:42:35.384Z,95742.72
2023-04-23T00:45:32.292Z,95743.94
2023-04-23T00:48:29.541Z,95741.47
2023-04-23T00:51:26.422Z,95748.22
2023-04-23T00:54:23.689Z,95749.78
2023-04-23T00:57:22.033Z,95758.06
2023-04-23T01:00:20.341Z,95739.75
2023-04-23T01:03:18.487Z,95745.28
2023-04-23T01:06:17.100Z,95739.84
2023-04-23T01:09:15.350Z,95741.53
2023-04-23T01:12:13.532Z,95737.63
2023-04-23T01:15:10.921Z,95740.66
2023-04-23T01:18:08.055Z,95734.81
2023-04-23T01:21:05.501Z,95739.22
2023-04-23T01:24:04.632Z,95738.91
2023-04-23T01:27:02.409Z,95732.38
2023-04-23T01:29:59.457Z,95731.13
2023-04-23T01:32:57.593Z,95728.59
2023-04-23T01:35:56.572Z,95743.09
2023-04-23T01:38:53.875Z,95737.44
2023-04-23T01:41:51.029Z,95748.41
2023-04-23T01:44:47.889Z,95743.56
2023-04-23T01:47:44.890Z,95738.66
2023-04-23T01:50:42.469Z,95747.63
2023-04-23T01:53:39.282Z,95735.66
2023-04-23T01:56:36.398Z,95737.91
2023-04-23T01:59:33.268Z,95736.78
2023-04-23T02:02:30.190Z,95737.03
2023-04-23T02:05:29.667Z,95742.13
2023-04-23T02:08:28.119Z,95735.34
2023-04-23T02:11:24.930Z,95747.44
2023-04-23T02:14:21.789Z,95747.19
2023-04-23T02:17:21.598Z,95748.56
2023-04-23T02:20:19.909Z,95743.31
2023-04-23T02:23:16.858Z,95755.50
2023-04-23T02:26:13.647Z,95750.34
2023-04-23T02:29:10.590Z,95747.97
2023-04-23T02:32:07.384Z,95749.31
2023-04-23T02:35:06.590Z,95741.38
2023-04-23T02:38:03.449Z,95742.72
2023-04-23T02:41:00.399Z,95745.75
2023-04-23T02:43:57.282Z,95746.75
2023-04-23T02:46:54.250Z,95747.44
2023-04-23T02:49:51.119Z,95742.84
2023-04-23T02:52:48.897Z,95738.94
2023-04-23T02:55:45.708Z,95751.78
2023-04-23T02:58:42.556Z,95745.53
2023-04-23T03:01:39.349Z,95747.19
2023-04-23T03:04:36.180Z,95751.91
2023-04-23T03:07:33.080Z,95757.84
2023-04-23T03:10:30.024Z,95756.66
2023-04-23T03:13:27.272Z,95755.28
2023-04-23T03:16:24.139Z,95760.72
2023-04-23T03:19:20.994Z,95762.97
2023-04-23T03:22:17.804Z,95769.19
2023-04-23T03:25:14.614Z,95760.69
2023-04-23T03:28:11.441Z,95760.66
2023-04-23T03:31:08.678Z,95766.53
2023-04-23T03:34:05.594Z,95760.97
2023-04-23T03:37:02.447Z,95767.72
2023-04-23T03:39:59.302Z,95765.63
2023-04-23T03:42:57.870Z,95771.78
2023-04-23T03:45:54.712Z,95771.06
2023-04-23T03:48:51.604Z,95773.38
2023-04-23T03:51:48.454Z,95780.56
2023-04-23T03:54:45.338Z,95770.59
2023-04-23T03:57:42.196Z,95773.47
2023-04-23T04:00:39.000Z,95772.69
2023-04-23T04:03:36.578Z,95775.06
2023-04-23T04:06:33.701Z,95776.47
2023-04-23T04:09:30.601Z,95774.03
2023-04-23T04:12:27.432Z,95786.91
2023-04-23T04:15:24.284Z,95779.75
2023-04-23T04:18:21.141Z,95774.50
2023-04-23T04:21:19.030Z,95775.09
2023-04-23T04:24:15.906Z,95780.72
2023-04-23T04:27:12.966Z,95789.03
2023-04-23T04:30:10.864Z,95780.13
2023-04-23T04:33:08.979Z,95780.31
2023-04-23T04:36:06.283Z,95775.75
2023-04-23T04:39:03.532Z,95783.97
2023-04-23T04:42:02.819Z,95775.34
2023-04-23T04:44:59.712Z,95783.88
2023-04-23T04:47:56.615Z,95786.41
2023-04-23T04:50:53.774Z,95792.38
2023-04-23T04:53:50.724Z,95781.09
2023-04-23T04:56:47.608Z,95790.78
2023-04-23T04:59:44.702Z,95778.97
2023-04-23T05:02:41.603Z,95785.09
2023-04-23T05:05:38.556Z,95779.34
2023-04-23T05:08:35.516Z,95791.47
2023-04-23T05:11:32.392Z,95805.22
2023-04-23T05:14:29.820Z,95802.50
2023-04-23T05:17:26.806Z,95792.09
2023-04-23T05:20:23.719Z,95804.16
2023-04-23T05:23:20.638Z,95805.50
2023-04-23T05:26:18.192Z,95797.94
2023-04-23T05:29:19.216Z,95809.50
2023-04-23T05:32:16.298Z,95803.72
2023-04-23T05:35:13.240Z,95810.00
2023-04-23T05:38:10.461Z,95806.16
2023-04-23T05:41:07.307Z,95795.88
2023-04-23T05:44:04.625Z,95800.91
2023-04-23T05:47:01.880Z,95802.38
2023-04-23T05:49:58.750Z,95809.28
2023-04-23T05:52:55.590Z,95812.09
2023-04-23T05:55:52.386Z,95815.13
2023-04-23T05:58:49.178Z,95822.13
2023-04-23T06:01:47.750Z,95831.13
2023-04-23T06:04:44.893Z,95838.97
2023-04-23T06:07:42.716Z,95843.13
2023-04-23T06:10:39.597Z,95837.81
2023-04-23T06:13:42.199Z,95842.16
2023-04-23T06:16:40.569Z,95835.19
2023-04-23T06:19:37.367Z,95835.38
2023-04-23T06:22:34.401Z,95840.59
2023-04-23T06:25:31.248Z,95850.63
2023-04-23T06:28:28.029Z,95849.81
2023-04-23T06:31:25.031Z,95852.97
2023-04-23T06:34:21.945Z,95854.38
2023-04-23T06:37:18.807Z,95844.81
2023-04-23T06:40:15.946Z,95848.66
2023-04-23T06:43:14.503Z,95855.16
2023-04-23T06:46:11.437Z,95855.69
2023-04-23T06:49:08.231Z,95853.91
2023-04-23T06:52:05.079Z,95851.88
2023-04-23T06:55:01.992Z,95854.47
2023-04-23T06:57:58.887Z,95854.69
2023-04-23T07:00:55.762Z,95859.78
2023-04-23T07:03:54.530Z,95856.69
2023-04-23T07:06:51.599Z,95848.16
2023-04-23T07:09:48.437Z,95842.69
2023-04-23T07:12:45.565Z,95858.72
2023-04-23T07:15:43.054Z,95857.00
2023-04-23T07:18:39.889Z,95853.38
2023-04-23T07:21:36.729Z,95860.97
2023-04-23T07:24:33.557Z,95860.84
2023-04-23T07:27:30.369Z,95859.31
2023-04-23T07:30:28.147Z,95859.47
2023-04-23T07:33:25.485Z,95864.75
2023-04-23T07:36:22.838Z,95857.72
2023-04-23T07:39:19.701Z,95860.25
2023-04-23T07:42:16.545Z,95868.38
2023-04-23T07:45:13.377Z,95865.19
2023-04-23T07:48:10.189Z,95871.00
2023-04-23T07:51:08.044Z,95866.25
2023-04-23T07:54:05.169Z,95860.75
2023-04-23T07:57:02.971Z,95857.72
2023-04-23T07:59:59.841Z,95864.00
2023-04-23T08:02:56.931Z,95855.38
2023-04-23T08:05:53.861Z,95858.47
2023-04-23T08:08:50.738Z,95853.53
2023-04-23T08:11:48.242Z,95850.28
2023-04-23T08:14:47.285Z,95852.97
2023-04-23T08:17:44.135Z,95849.34
2023-04-23T08:20:41.331Z,95846.84
2023-04-23T08:23:38.428Z,95836.13
2023-04-23T08:26:35.456Z,95835.00
2023-04-23T08:29:32.658Z,95839.75
2023-04-23T08:32:29.820Z,95820.75
2023-04-23T08:35:26.668Z,95827.19
2023-04-23T08:38:23.630Z,95842.84
2023-04-23T08:41:24.438Z,95841.38
2023-04-23T08:44:26.300Z,95845.34
2023-04-23T08:47:25.493Z,95832.88
2023-04-23T08:50:23.285Z,95836.56
2023-04-23T08:53:25.200Z,95851.88
2023-04-23T08:56:23.099Z,95845.63
2023-04-23T08:59:22.988Z,95840.50
2023-04-23T09:02:20.047Z,95834.25
2023-04-23T09:05:17.364Z,95829.28
2023-04-23T09:08:14.157Z,95817.84
2023-04-23T09:11:11.221Z,95812.03
2023-04-23T09:14:08.887Z,95823.44
2023-04-23T09:17:05.805Z,95826.63
2023-04-23T09:20:03.914Z,95830.72
2023-04-23T09:23:00.856Z,95815.63
2023-04-23T09:25:58.003Z,95807.72
2023-04-23T09:28:54.850Z,95825.38
2023-04-23T09:32:02.479Z,95814.97
2023-04-23T09:34:59.411Z,95811.63
2023-04-23T09:37:56.299Z,95810.28
2023-04-23T09:40:53.197Z,95805.25
2023-04-23T09:43:50.005Z,95803.25
2023-04-23T09:46:46.872Z,95808.91
2023-04-23T09:49:48.505Z,95809.97
2023-04-23T09:52:45.527Z,95816.19
2023-04-23T09:55:45.395Z,95816.00
2023-04-23T09:58:45.362Z,95818.06
2023-04-23T10:01:46.130Z,95822.19
2023-04-23T10:04:43.243Z,95810.53
2023-04-23T10:07:40.423Z,95815.84
2023-04-23T10:10:51.004Z,95820.31
2023-04-23T10:13:55.106Z,95803.41
2023-04-23T10:16:57.232Z,95803.47
2023-04-23T10:19:55.673Z,95788.19
2023-04-23T10:22:56.350Z,95798.28
2023-04-23T10:25:56.185Z,95803.56
2023-04-23T10:28:55.118Z,95795.38
2023-04-23T10:31:54.623Z,95793.81
2023-04-23T10:34:52.124Z,95795.22
2023-04-23T10:37:49.325Z,95790.84
2023-04-23T10:40:49.100Z,95780.41
2023-04-23T10:43:46.079Z,95785.13
2023-04-23T10:46:58.499Z,95765.22
2023-04-23T10:49:55.424Z,95756.56
2023-04-23T10:52:54.464Z,95747.31
2023-04-23T10:56:04.273Z,95752.88
2023-04-23T10:59:01.591Z,95758.81
2023-04-23T11:02:09.292Z,95770.56
2023-04-23T11:05:09.689Z,95755.09
2023-04-23T11:08:18.974Z,95763.84
2023-04-23T11:11:16.796Z,95752.06
2023-04-23T11:14:16.795Z,95747.66
2023-04-23T11:17:16.134Z,95744.91
2023-04-23T11:20:23.897Z,95734.81
2023-04-23T11:23:33.009Z,95735.31
2023-04-23T11:26:31.489Z,95731.69
2023-04-23T11:29:29.051Z,95731.94
2023-04-23T11:32:28.394Z,95715.47
2023-04-23T11:35:30.399Z,95723.13
2023-04-23T11:38:33.653Z,95717.19
2023-04-23T11:41:30.550Z,95722.63
2023-04-23T11:44:28.186Z,95705.50
2023-04-23T11:47:26.505Z,95697.63
2023-04-23T11:50:30.553Z,95697.97
2023-04-23T11:53:27.472Z,95693.63
2023-04-23T11:56:25.134Z,95692.38
2023-04-23T11:59:22.949Z,95679.00
2023-04-23T12:02:19.918Z,95688.50
2023-04-23T12:05:21.499Z,95694.66
2023-04-23T12:08:20.391Z,95686.78
2023-04-23T12:11:17.197Z,95682.50
2023-04-23T12:14:15.313Z,95672.91
2023-04-23T12:17:12.426Z,95677.06
2023-04-23T12:20:21.230Z,95674.56
2023-04-23T12:23:18.091Z,95671.47
2023-04-23T12:26:16.736Z,95669.91
2023-04-23T12:29:14.254Z,95664.50
2023-04-23T12:32:12.229Z,95661.00
2023-04-23T12:35:11.110Z,95670.88
2023-04-23T12:38:08.353Z,95675.53
2023-04-23T12:41:05.543Z,95665.63
2023-04-23T12:44:02.723Z,95675.31
2023-04-23T12:47:04.995Z,95676.59
2023-04-23T12:50:03.944Z,95667.34
2023-04-23T12:53:00.867Z,95668.06
2023-04-23T12:55:57.698Z,95660.44
2023-04-23T12:58:54.572Z,95649.88
2023-04-23T13:01:52.026Z,95645.31
2023-04-23T13:04:48.912Z,95633.16
2023-04-23T13:07:45.723Z,95642.16
2023-04-23T13:10:42.573Z,95634.47
2023-04-23T13:13:39.566Z,95626.38
2023-04-23T13:16:36.712Z,95637.34
2023-04-23T13:19:35.403Z,95621.94
2023-04-23T13:22:33.067Z,95628.13
2023-04-23T13:25:29.925Z,95616.09
2023-04-23T13:28:26.956Z,95602.88
2023-04-23T13:31:24.131Z,95585.22
2023-04-23T13:34:21.330Z,95568.78
2023-04-23T13:37:18.302Z,95561.34
2023-04-23T13:40:15.360Z,95554.25
2023-04-23T13:43:12.246Z,95555.03
2023-04-23T13:46:09.230Z,95548.81
2023-04-23T13:49:06.699Z,95552.00
2023-04-23T13:52:06.819Z,95555.63
2023-04-23T13:55:04.239Z,95538.88
2023-04-23T13:58:01.147Z,95552.75
2023-04-23T14:00:58.059Z,95539.19
2023-04-23T14:03:54.939Z,95542.56
2023-04-23T14:06:51.843Z,95548.91
2023-04-23T14:09:52.613Z,95536.78
2023-04-23T14:12:49.842Z,95544.75
2023-04-23T14:15:46.689Z,95548.13
2023-04-23T14:18:43.503Z,95535.28
2023-04-23T14:21:41.619Z,95533.25
2023-04-23T14:24:49.578Z,95521.28
2023-04-23T14:27:51.362Z,95515.06
2023-04-23T14:30:48.200Z,95513.94
2023-04-23T14:33:45.080Z,95506.50
2023-04-23T14:36:41.933Z,95508.13
2023-04-23T14:39:39.355Z,95502.31
2023-04-23T14:42:36.330Z,95513.19
2023-04-23T14:45:33.483Z,95505.78
2023-04-23T14:48:30.297Z,95491.75
2023-04-23T14:51:29.803Z,95477.22
2023-04-23T14:54:26.662Z,95465.44
2023-04-23T14:57:23.498Z,95479.88
2023-04-23T15:00:22.297Z,95467.19
2023-04-23T15:03:19.249Z,95470.72
2023-04-23T15:06:16.353Z,95472.31
2023-04-23T15:09:13.186Z,95469.63
2023-04-23T15:12:39.966Z,95458.91
2023-04-23T15:15:49.208Z,95441.75
2023-04-23T15:18:46.265Z,95446.16
2023-04-23T15:21:43.305Z,95436.72
2023-04-23T15:24:40.154Z,95438.13
2023-04-23T15:27:37.167Z,95424.59
2023-04-23T15:30:34.008Z,95433.91
2023-04-23T15:33:30.994Z,95435.06
2023-04-23T15:36:28.538Z,95428.78
2023-04-23T15:39:26.310Z,95429.06
2023-04-23T15:42:24.812Z,95430.19
2023-04-23T15:45:21.941Z,95442.88
2023-04-23T15:48:18.953Z,95434.84
2023-04-23T15:51:16.317Z,95430.78
2023-04-23T15:54:13.270Z,95425.19
2023-04-23T15:57:10.224Z,95422.94
2023-04-23T16:00:12.094Z,95428.25
2023-04-23T16:03:09.555Z,95435.50
2023-04-23T16:06:06.621Z,95428.66
2023-04-23T16:09:06.706Z,95422.09
2023-04-23T16:12:03.974Z,95421.53
2023-04-23T16:15:00.870Z,95413.19
2023-04-23T16:17:59.799Z,95414.59
2023-04-23T16:20:57.023Z,95410.31
2023-04-23T16:23:53.868Z,95402.19
2023-04-23T16:26:51.037Z,95400.16
2023-04-23T16:29:47.928Z,95402.13
2023-04-23T16:32:44.843Z,95388.94
2023-04-23T16:35:41.778Z,95396.59
2023-04-23T16:38:39.644Z,95393.69
2023-04-23T16:41:36.605Z,95388.34
2023-04-23T16:44:33.724Z,95388.56
2023-04-23T16:47:30.565Z,95387.13
2023-04-23T16:50:28.117Z,95379.84
2023-04-23T16:53:25.838Z,95385.31
2023-04-23T16:56:23.049Z,95380.97
2023-04-23T16:59:20.431Z,95383.25
2023-04-23T17:02:17.593Z,95373.97
2023-04-23T17:05:14.545Z,95374.94
2023-04-23T17:08:11.366Z,95379.19
2023-04-23T17:11:08.664Z,95376.38
2023-04-23T17:14:05.843Z,95372.09
2023-04-23T17:17:02.669Z,95359.97
2023-04-23T17:19:59.562Z,95368.41
2023-04-23T17:22:56.392Z,95368.03
2023-04-23T17:25:53.305Z,95359.28
2023-04-23T17:28:50.216Z,95355.66
2023-04-23T17:31:47.095Z,95357.72
2023-04-23T17:34:49.477Z,95349.16
2023-04-23T17:37:51.121Z,95346.38
2023-04-23T17:40:52.785Z,95345.59
2023-04-23T17:43:50.265Z,95343.38
2023-04-23T17:46:47.078Z,95337.16
2023-04-23T17:49:44.058Z,95341.47
2023-04-23T17:52:41.188Z,95341.81
2023-04-23T17:55:38.210Z,95343.66
2023-04-23T17:58:36.165Z,95343.50
2023-04-23T18:01:35.036Z,95348.81
2023-04-23T18:04:33.723Z,95347.94
2023-04-23T18:07:30.600Z,95334.84
2023-04-23T18:10:28.470Z,95342.91
2023-04-23T18:13:25.364Z,95334.56
2023-04-23T18:16:22.244Z,95335.31
2023-04-23T18:19:19.095Z,95334.38
2023-04-23T18:22:16.457Z,95339.16
2023-04-23T18:25:13.571Z,95346.28
2023-04-23T18:28:10.858Z,95345.03
2023-04-23T18:31:07.947Z,95333.41
2023-04-23T18:34:10.101Z,95333.56
2023-04-23T18:37:30.791Z,95339.66
2023-04-23T18:40:27.912Z,95340.28
2023-04-23T18:43:25.351Z,95345.66
2023-04-23T18:46:23.476Z,95345.56
2023-04-23T18:49:29.586Z,95339.06
2023-04-23T18:52:26.434Z,95333.88
2023-04-23T18:55:23.353Z,95347.38
2023-04-23T18:58:20.213Z,95350.97
2023-04-23T19:01:17.183Z,95348.63
2023-04-23T19:04:15.168Z,95347.19
2023-04-23T19:07:12.223Z,95352.81
2023-04-23T19:10:10.041Z,95349.59
2023-04-23T19:13:06.877Z,95357.78
2023-04-23T19:16:03.824Z,95346.00
2023-04-23T19:19:00.741Z,95334.19
2023-04-23T19:21:57.656Z,95338.34
2023-04-23T19:24:54.483Z,95330.31
2023-04-23T19:27:51.343Z,95327.19
2023-04-23T19:30:48.206Z,95319.09
2023-04-23T19:33:46.297Z,95318.09
2023-04-23T19:36:43.099Z,95313.38
2023-04-23T19:39:40.148Z,95314.66
2023-04-23T19:42:37.215Z,95300.47
2023-04-23T19:45:34.176Z,95307.72
2023-04-23T19:48:31.131Z,95303.34
2023-04-23T19:51:32.862Z,95304.13
2023-04-23T19:54:29.796Z,95306.47
2023-04-23T19:57:26.856Z,95298.47
2023-04-23T20:00:25.435Z,95300.28
2023-04-23T20:03:22.596Z,95303.91
2023-04-23T20:06:19.807Z,95308.31
2023-04-23T20:09:21.463Z,95322.47
2023-04-23T20:12:19.838Z,95351.94
2023-04-23T20:15:16.761Z,95414.28
2023-04-23T20:18:13.939Z,95467.28
2023-04-23T20:21:10.797Z,95496.53
2023-04-23T20:24:09.560Z,95480.47
2023-04-23T20:27:07.057Z,95475.00
2023-04-23T20:30:06.001Z,95468.28
2023-04-23T20:33:03.320Z,95453.06
2023-04-23T20:36:01.584Z,95454.69
2023-04-23T20:39:01.005Z,95457.66
2023-04-23T20:42:00.809Z,95457.25
2023-04-23T20:44:57.693Z,95438.22
2023-04-23T20:47:57.304Z,95431.69
2023-04-23T20:50:55.201Z,95434.75
2023-04-23T20:53:52.191Z,95431.34
2023-04-23T20:56:53.962Z,95414.34
2023-04-23T20:59:50.913Z,95403.03
2023-04-23T21:02:47.896Z,95393.78
2023-04-23T21:05:44.906Z,95401.13
2023-04-23T21:08:42.717Z,95406.56
2023-04-23T21:11:41.807Z,95400.47
2023-04-23T21:14:38.645Z,95396.97
2023-04-23T21:17:35.506Z,95393.19
2023-04-23T21:20:32.352Z,95405.53
2023-04-23T21:23:29.245Z,95395.84
2023-04-23T21:26:27.476Z,95396.00
2023-04-23T21:29:25.907Z,95389.94
2023-04-23T21:32:22.824Z,95398.91
2023-04-23T21:35:19.665Z,95394.59
2023-04-23T21:38:17.836Z,95383.16
2023-04-23T21:41:14.637Z,95379.31
2023-04-23T21:44:11.489Z,95383.16
2023-04-23T21:47:08.391Z,95383.94
2023-04-23T21:50:06.191Z,95382.41
2023-04-23T21:53:04.067Z,95382.81
2023-04-23T21:56:00.985Z,95371.19
2023-04-23T21:58:57.843Z,95373.78
2023-04-23T22:01:54.921Z,95375.94
2023-04-23T22:04:51.831Z,95372.97
2023-04-23T22:07:51.625Z,95373.69
2023-04-23T22:10:49.710Z,95371.28
2023-04-23T22:13:46.538Z,95379.34
2023-04-23T22:16:43.459Z,95382.66
2023-04-23T22:19:40.601Z,95376.84
2023-04-23T22:22:40.060Z,95391.06
2023-04-23T22:25:36.895Z,95398.88
2023-04-23T22:28:33.760Z,95386.28
2023-04-23T22:31:30.538Z,95392.66
2023-04-23T22:34:27.349Z,95392.09
2023-04-23T22:37:24.373Z,95387.91
2023-04-23T22:40:21.572Z,95392.91
2023-04-23T22:43:18.405Z,95386.50
2023-04-23T22:46:15.453Z,95385.53
2023-04-23T22:49:14.256Z,95379.56
2023-04-23T22:52:14.357Z,95385.75
2023-04-23T22:55:11.718Z,95377.22
2023-04-23T22:58:08.702Z,95370.50
2023-04-23T23:01:05.667Z,95371.91
2023-04-23T23:04:02.771Z,95369.41
2023-04-23T23:06:59.615Z,95368.03
2023-04-23T23:09:56.512Z,95373.38
2023-04-23T23:12:53.547Z,95373.66
2023-04-23T23:15:50.373Z,95368.91
2023-04-23T23:18:47.290Z,95367.16
2023-04-23T23:21:44.188Z,95362.97
2023-04-23T23:24:41.067Z,95373.97
2023-04-23T23:27:37.897Z,95365.13
2023-04-23T23:30:34.737Z,95382.06
2023-04-23T23:33:31.656Z,95378.50
2023-04-23T23:36:28.674Z,95387.44
2023-04-23T23:39:25.552Z,95376.09
2023-04-23T23:42:22.373Z,95373.66
2023-04-23T23:45:19.181Z,95369.66
2023-04-23T23:48:16.056Z,95367.16
2023-04-23T23:51:13.456Z,95374.19
2023-04-23T23:54:10.267Z,95372.28
2023-04-23T23:57:07.124Z,95375.22
